Liberal Mid-America Regional Airport
KLBL : now visible

Airfield :











YOU CAN JOIN US ON...

 
LOGIN :

Register | Disclaimer

   EN    FR    IT 

 









Legend :    VFR   Marginal VFR   IFR   Intensive IFR   Very Intensive IFR
Visi :
Ceiling :
>= 8 km
>= 3000ft
5 to 8 km
1000 to 3000 ft
1500m to 5 km
500 to 1000 ft
800 to 1500m
200 to 500 ft
< 800m
< 200 ft
Symbols :   Thunderstorms  Fog  Heavy snow  Heavy precipitations  Wind > 20 kt







- Airport Elevation : 2885 ft
- IATA code : LBL


KLBL - Liberal Mid-America Regional

CURRENT METAR :
  • 160656Z AUTO 17011KT 10SM CLR 21/12 A3010 RMK AO2 SLP156 T02110122

EXPIRED METARs :
  • 160556Z AUTO 16010KT 10SM CLR 22/13 A3009 RMK AO2 SLP153 T02170128 10311 20217 50003
  • 160456Z AUTO 17011KT 10SM CLR 23/13 A3010 RMK AO2 SLP154 T02280128 403390161
  • 160356Z AUTO 16011KT 10SM CLR 24/13 A3009 RMK AO2 SLP154 T02390128

TAF KLBL
Valid from the 16 at 06:00 until the 17 at 06:00 UTC


160520Z 1606/1706 17010KT P6SM FEW250
FM161800 20015G25KT P6SM SCT250
FM170100 18012KT P6SM SCT250
No reported NOTAMs for that airfield.



MET'MAP, your aeronautical weather chart ! - Copyright ORBIFLY December 2007 - Disclaimer

ORBIFLY MET'MAP TEAM :

Programming & Development : Alexandra Zaïnal
Concept & Development : Baudouin d'Aumeries
Co-Development & Prog : Marc-Olivier Méhu
Technical & hardware support : Manuel Goepfert

Contact : metmap@orbifly.com




SOURCES & CREDITS :

   NOAA       Earth
Advisory